Time;durP1;ratioP1;P1;durP2;ratioP2;P2;SDS_P1;SDS_P2;PMS_P1;PMS_P2;Temp;Humidity;BMP_temperature;BMP_pressure;BME280_temperature;BME280_humidity;BME280_pressure;Samples;Min_cycle;Max_cycle;Signal;HPM_P1;HPM_P2
2023/07/19 00:00:09;;;;;;;24.27;1.40;;;;;;;27.11;54.20;99242.41;7313522;19;129184;-34
2023/07/19 00:02:34;;;;;;;65.97;3.87;;;;;;;27.10;54.48;99241.63;7310591;19;129675;-33
2023/07/19 00:04:59;;;;;;;28.83;1.53;;;;;;;26.73;50.67;99233.78;7314181;19;129654;-38
2023/07/19 00:07:25;;;;;;;23.97;1.47;;;;;;;26.56;50.62;99235.75;7313018;19;129193;-43
2023/07/19 00:09:50;;;;;;;23.77;1.40;;;;;;;26.52;49.93;99236.31;7313048;19;130190;-32
2023/07/19 00:12:15;;;;;;;22.37;1.33;;;;;;;26.76;53.58;99239.53;7311472;19;129566;-37
2023/07/19 00:14:41;;;;;;;70.10;4.23;;;;;;;26.93;53.74;99234.91;7313935;19;130305;-37
2023/07/19 00:17:07;;;;;;;58.13;3.57;;;;;;;26.99;54.33;99236.00;7313138;19;129400;-33
2023/07/19 00:19:32;;;;;;;25.70;1.50;;;;;;;27.03;54.34;99229.31;7312756;19;130406;-40
2023/07/19 00:21:57;;;;;;;67.90;3.40;;;;;;;27.04;53.79;99229.16;7309812;19;130167;-39
2023/07/19 00:24:23;;;;;;;20.20;1.27;;;;;;;27.07;54.44;99230.63;7314016;19;129215;-39
2023/07/19 00:26:49;;;;;;;68.27;4.07;;;;;;;27.08;54.14;99224.31;7312513;19;129977;-31
2023/07/19 00:29:14;;;;;;;62.40;3.93;;;;;;;27.05;53.85;99217.59;7310436;19;128904;-36
2023/07/19 00:31:40;;;;;;;41.33;2.33;;;;;;;27.09;54.70;99218.06;7312669;19;130089;-45
2023/07/19 00:34:05;;;;;;;13.90;0.90;;;;;;;27.07;54.20;99214.78;7312097;19;131109;-33
2023/07/19 00:36:31;;;;;;;30.30;1.77;;;;;;;27.09;54.51;99216.22;7312978;19;130058;-33
2023/07/19 00:38:56;;;;;;;44.27;2.87;;;;;;;27.10;54.11;99223.16;7310950;19;130675;-39
2023/07/19 00:41:21;;;;;;;44.23;2.43;;;;;;;27.08;53.14;99219.88;7310606;19;129101;-33
2023/07/19 00:43:48;;;;;;;46.67;2.63;;;;;;;26.66;50.88;99217.88;7312216;19;129985;-29
2023/07/19 00:46:13;;;;;;;24.20;1.45;;;;;;;26.52;49.95;99213.41;7309772;19;129112;-33
2023/07/19 00:48:39;;;;;;;24.70;1.33;;;;;;;26.63;53.52;99212.94;7311572;19;128898;-37
2023/07/19 00:51:04;;;;;;;77.47;4.43;;;;;;;26.88;53.68;99216.16;7310807;19;129313;-36
2023/07/19 00:53:30;;;;;;;28.13;1.70;;;;;;;26.97;53.85;99219.53;7312837;19;130188;-30
2023/07/19 00:55:55;;;;;;;57.97;3.57;;;;;;;27.01;53.79;99216.31;7310843;19;129326;-35
2023/07/19 00:58:23;;;;;;;29.13;1.73;;;;;;;27.05;54.06;99211.50;7311286;19;129870;-36
2023/07/19 01:00:50;;;;;;;37.63;2.03;;;;;;;27.06;54.10;99207.84;7311103;19;130386;-39
2023/07/19 01:03:16;;;;;;;33.50;2.03;;;;;;;27.06;54.24;99207.84;7311246;19;130331;-34
2023/07/19 01:05:42;;;;;;;36.63;2.17;;;;;;;27.08;54.60;99211.94;7311431;19;128801;-38
2023/07/19 01:08:07;;;;;;;61.20;3.67;;;;;;;27.09;54.63;99208.31;7308222;19;129047;-35
2023/07/19 01:10:33;;;;;;;35.33;2.03;;;;;;;27.10;54.57;99204.69;7311746;19;129148;-36
2023/07/19 01:13:05;;;;;;;47.10;2.83;;;;;;;27.11;54.16;99205.47;7306376;19;130831;-35
2023/07/19 01:15:31;;;;;;;28.77;1.77;;;;;;;27.10;54.62;99198.56;7311850;19;129084;-36
2023/07/19 01:17:56;;;;;;;31.33;1.80;;;;;;;27.11;54.58;99189.63;7311194;19;129368;-33
2023/07/19 01:20:21;;;;;;;23.40;1.50;;;;;;;26.75;50.93;99185.16;7309847;19;130127;-38
2023/07/19 01:22:46;;;;;;;46.23;2.47;;;;;;;26.58;50.19;99183.66;7309038;19;129660;-31
2023/07/19 01:25:12;;;;;;;58.27;3.57;;;;;;;26.48;50.08;99174.38;7310430;19;129862;-33
2023/07/19 01:27:38;;;;;;;40.23;2.17;;;;;;;26.73;53.78;99181.88;7310475;19;129158;-36
2023/07/19 01:30:04;;;;;;;41.40;2.33;;;;;;;26.81;53.81;99157.19;7311230;19;128979;-36
2023/07/19 01:32:30;;;;;;;25.77;1.57;;;;;;;26.97;54.00;99172.84;7307858;19;129211;-36
2023/07/19 01:34:55;;;;;;;26.67;1.57;;;;;;;27.03;53.94;99176.56;7310664;19;129060;-37
2023/07/19 01:37:20;;;;;;;69.10;4.03;;;;;;;27.06;54.11;99162.97;7309186;19;129666;-28
2023/07/19 01:39:46;;;;;;;27.90;1.63;;;;;;;27.08;53.96;99168.91;7311289;19;129448;-39
2023/07/19 01:42:12;;;;;;;23.07;1.73;;;;;;;27.09;54.01;99162.63;7308579;19;130325;-45
2023/07/19 01:44:37;;;;;;;21.27;1.30;;;;;;;27.08;54.12;99167.09;7310284;19;128974;-35
2023/07/19 01:47:02;;;;;;;50.53;2.90;;;;;;;27.10;54.47;99166.91;7309597;19;129218;-37
2023/07/19 01:49:28;;;;;;;66.30;3.90;;;;;;;27.10;54.38;99167.72;7310410;19;129051;-41
2023/07/19 01:51:53;;;;;;;20.17;1.20;;;;;;;27.11;54.36;99168.53;7309659;19;129458;-34
2023/07/19 01:54:18;;;;;;;29.77;1.70;;;;;;;27.01;54.09;99144.28;7310346;19;128954;-34
2023/07/19 01:56:44;;;;;;;50.43;2.83;;;;;;;27.11;54.61;99157.97;7310464;19;129591;-36
2023/07/19 01:59:09;;;;;;;26.90;1.70;;;;;;;26.68;50.55;99157.88;7317059;19;129280;-35
2023/07/19 02:01:34;;;;;;;52.57;3.20;;;;;;;26.44;50.62;99150.22;7315452;19;129062;-39
2023/07/19 02:03:59;;;;;;;31.27;1.80;;;;;;;26.52;52.68;99179.13;7318485;19;129574;-33
2023/07/19 02:06:25;;;;;;;83.43;4.77;;;;;;;26.73;53.87;99158.13;7317093;19;130403;-34
2023/07/19 02:08:50;;;;;;;22.90;1.43;;;;;;;26.91;54.19;99168.28;7318199;19;130744;-34
2023/07/19 02:11:15;;;;;;;35.40;2.07;;;;;;;27.01;53.98;99160.13;7317089;19;129177;-36
2023/07/19 02:13:41;;;;;;;57.87;3.53;;;;;;;27.04;54.34;99157.09;7316812;19;130521;-36
2023/07/19 02:16:06;;;;;;;32.23;1.77;;;;;;;27.06;54.00;99155.91;7317745;19;129291;-34
2023/07/19 02:18:31;;;;;;;52.47;2.67;;;;;;;27.08;53.70;99160.97;7317271;19;129366;-39
2023/07/19 02:20:57;;;;;;;22.53;1.30;;;;;;;27.09;54.24;99162.63;7314811;19;130142;-38
2023/07/19 02:23:23;;;;;;;31.63;1.87;;;;;;;27.09;53.83;99165.28;7317462;19;129306;-32
2023/07/19 02:25:49;;;;;;;63.30;3.70;;;;;;;27.10;54.44;99166.91;7316616;19;131024;-30
2023/07/19 02:28:16;;;;;;;29.45;1.70;;;;;;;27.11;54.54;99157.97;7316033;19;130198;-35
2023/07/19 02:30:42;;;;;;;43.05;2.55;;;;;;;27.10;54.30;99151.91;7315544;19;130323;-44
2023/07/19 02:33:12;;;;;;;45.55;2.50;;;;;;;27.01;54.21;99141.66;7316544;19;131525;-35
2023/07/19 02:35:37;;;;;;;33.63;1.95;;;;;;;26.77;50.75;99153.31;7316454;19;129235;-40
2023/07/19 02:38:03;;;;;;;30.50;1.73;;;;;;;26.53;50.17;99149.09;7314923;19;133192;-31
2023/07/19 02:40:28;;;;;;;28.93;1.90;;;;;;;26.50;49.68;99154.75;7315306;19;129970;-35
2023/07/19 02:42:53;;;;;;;56.70;3.43;;;;;;;26.59;53.31;99143.09;7312832;19;129273;-36
2023/07/19 02:45:19;;;;;;;29.60;1.80;;;;;;;26.88;53.46;99166.84;7316122;19;129431;-35
2023/07/19 02:47:44;;;;;;;67.23;3.97;;;;;;;26.99;53.72;99164.75;7314049;19;129701;-32
2023/07/19 02:50:10;;;;;;;24.37;1.40;;;;;;;26.99;53.52;99149.72;7315283;19;129409;-34
2023/07/19 02:52:35;;;;;;;38.90;2.10;;;;;;;27.04;54.13;99157.91;7313512;19;128971;-41
2023/07/19 02:55:01;;;;;;;47.80;3.10;;;;;;;27.06;53.87;99150.63;7315182;19;130650;-39
2023/07/19 02:57:26;;;;;;;42.33;2.37;;;;;;;27.08;54.29;99147.78;7314042;19;129051;-33
2023/07/19 02:59:51;;;;;;;42.83;2.53;;;;;;;27.09;54.15;99152.88;7314674;19;129283;-31
2023/07/19 03:02:17;;;;;;;42.13;2.23;;;;;;;27.10;53.78;99151.06;7312589;19;128822;-36
2023/07/19 03:04:42;;;;;;;57.73;3.63;;;;;;;27.10;54.16;99149.25;7314624;19;128948;-40
2023/07/19 03:07:07;;;;;;;35.60;2.17;;;;;;;27.10;54.66;99151.91;7312507;19;130106;-33
2023/07/19 03:09:33;;;;;;;34.60;2.00;;;;;;;27.10;53.96;99148.44;7313946;19;129223;-35
2023/07/19 03:11:58;;;;;;;53.87;3.03;;;;;;;27.11;54.51;99150.06;7312948;19;129186;-45
2023/07/19 03:14:23;;;;;;;9.83;0.70;;;;;;;26.66;50.49;99154.59;7314068;19;128748;-32
2023/07/19 03:16:49;;;;;;;26.40;1.63;;;;;;;26.59;49.35;99148.38;7314553;19;129279;-37
2023/07/19 03:19:14;;;;;;;75.93;4.03;;;;;;;26.45;51.92;99135.19;7312138;19;130286;-36
2023/07/19 03:21:40;;;;;;;35.10;1.87;;;;;;;26.79;53.76;99149.47;7314330;19;128918;-33
2023/07/19 03:24:05;;;;;;;56.27;3.33;;;;;;;26.86;53.83;99134.56;7314138;19;129327;-32
2023/07/19 03:26:31;;;;;;;31.77;1.87;;;;;;;27.00;53.52;99139.97;7314080;19;129025;-33
2023/07/19 03:28:56;;;;;;;42.53;2.30;;;;;;;27.04;54.32;99138.63;7313911;19;129706;-34
2023/07/19 03:31:21;;;;;;;44.87;2.57;;;;;;;27.06;54.15;99140.06;7313958;19;129080;-35
2023/07/19 03:33:47;;;;;;;25.73;1.60;;;;;;;27.09;53.89;99144.16;7314575;19;128848;-40
2023/07/19 03:36:12;;;;;;;54.13;3.33;;;;;;;27.08;54.45;99147.78;7312822;19;129713;-33
2023/07/19 03:38:37;;;;;;;40.67;2.20;;;;;;;27.10;54.43;99143.16;7313195;19;130293;-38
2023/07/19 03:41:07;;;;;;;32.07;1.83;;;;;;;27.10;54.75;99140.50;7313667;19;129880;-35
2023/07/19 03:43:32;;;;;;;28.85;1.77;;;;;;;27.10;54.28;99143.16;7314200;19;129041;-34
2023/07/19 03:45:57;;;;;;;25.07;1.43;;;;;;;27.11;54.52;99144.78;7314027;19;129418;-36
2023/07/19 03:48:23;;;;;;;66.00;3.97;;;;;;;27.10;54.37;99140.50;7311359;19;130312;-36
2023/07/19 03:50:59;;;;;;;29.27;1.63;;;;;;;26.81;51.35;99146.66;7314177;19;128721;-31
2023/07/19 03:53:25;;;;;;;62.60;3.72;;;;;;;26.56;49.87;99146.09;7311170;19;129150;-33
2023/07/19 03:55:57;;;;;;;26.83;1.57;;;;;;;26.44;49.98;99142.31;7313608;19;129201;-41
2023/07/19 03:58:27;;;;;;;68.53;3.90;;;;;;;26.70;53.99;99145.31;7312127;19;129162;-34
2023/07/19 04:00:56;;;;;;;28.98;1.63;;;;;;;26.89;54.28;99139.47;7313963;19;129077;-35
2023/07/19 04:03:22;;;;;;;49.60;3.00;;;;;;;26.97;54.02;99145.63;7313834;19;128879;-36
2023/07/19 04:05:48;;;;;;;8.40;0.70;;;;;;;27.02;53.60;99143.25;7313843;19;129496;-38
2023/07/19 04:08:14;;;;;;;29.77;1.77;;;;;;;27.05;53.90;99153.44;7311769;19;131125;-39
2023/07/19 04:10:40;;;;;;;;;;;;;;;27.17;54.72;99149.31;7314577;19;129602;-37
2023/07/19 04:13:06;;;;;;;27.05;1.65;;;;;;;27.08;53.89;99143.34;7314876;19;128901;-36
2023/07/19 04:15:32;;;;;;;37.73;2.37;;;;;;;27.07;54.04;99138.25;7311494;19;130374;-33
2023/07/19 04:17:57;;;;;;;27.05;1.58;;;;;;;27.09;54.36;99146.81;7312780;19;131118;-33
2023/07/19 04:20:23;;;;;;;65.23;3.73;;;;;;;27.08;54.36;99147.78;7310209;19;129388;-34
2023/07/19 04:22:48;;;;;;;24.20;1.40;;;;;;;27.09;54.31;99144.16;7310717;19;128900;-36
2023/07/19 04:25:14;;;;;;;37.53;2.17;;;;;;;27.08;54.09;99148.63;7312267;19;131483;-35
2023/07/19 04:27:39;;;;;;;31.33;1.93;;;;;;;26.85;51.02;99143.47;7311863;19;131380;-31
2023/07/19 04:30:05;;;;;;;26.90;1.60;;;;;;;26.57;51.44;99139.84;7313442;19;131991;-37
2023/07/19 04:32:31;;;;;;;62.92;3.83;;;;;;;26.44;49.77;99139.66;7310453;19;128910;-37
2023/07/19 04:34:58;;;;;;;33.93;1.90;;;;;;;26.65;54.05;99146.81;7312712;19;131581;-39
2023/07/19 04:37:23;;;;;;;50.78;2.92;;;;;;;26.86;54.18;99139.00;7310118;19;130587;-35
2023/07/19 04:39:49;;;;;;;27.30;1.57;;;;;;;26.86;54.12;99118.72;7312921;19;129259;-40
2023/07/19 04:42:16;;;;;;;25.65;1.48;;;;;;;27.00;54.33;99132.06;7310345;19;128960;-30
2023/07/19 04:44:41;;;;;;;40.40;2.40;;;;;;;27.05;53.95;99127.06;7311145;19;129348;-36
2023/07/19 04:47:06;;;;;;;69.10;3.93;;;;;;;27.06;54.19;99131.31;7311295;19;129497;-36
2023/07/19 04:49:32;;;;;;;70.87;4.20;;;;;;;27.07;53.96;99132.97;7311379;19;129369;-32
2023/07/19 04:51:59;;;;;;;14.50;1.00;;;;;;;27.08;54.10;99131.94;7310221;19;129124;-36
2023/07/19 04:54:24;;;;;;;39.70;2.17;;;;;;;27.08;54.49;99126.69;7311039;19;129401;-38
2023/07/19 04:56:49;;;;;;;27.27;1.70;;;;;;;27.00;54.21;99108.31;7311042;19;129295;-33
2023/07/19 04:59:15;;;;;;;25.20;1.47;;;;;;;27.09;54.29;99123.84;7312174;19;129584;-34
2023/07/19 05:01:40;;;;;;;40.37;2.57;;;;;;;27.09;54.38;99128.34;7309377;19;129114;-36
2023/07/19 05:04:05;;;;;;;16.77;1.07;;;;;;;27.10;54.04;99122.03;7311431;19;129180;-36
2023/07/19 05:06:31;;;;;;;75.53;4.30;;;;;;;26.61;50.29;99124.47;7310168;19;130356;-33
2023/07/19 05:08:57;;;;;;;28.90;1.73;;;;;;;26.52;49.79;99131.66;7311464;19;128813;-33
2023/07/19 05:11:25;;;;;;;27.10;1.63;;;;;;;26.50;52.24;99128.38;7310674;19;129022;-34
2023/07/19 05:13:50;;;;;;;20.75;1.33;;;;;;;26.80;53.88;99124.75;7311634;19;129205;-35
2023/07/19 05:16:16;;;;;;;42.70;2.23;;;;;;;26.92;54.10;99123.25;7312051;19;130202;-39
2023/07/19 05:18:41;;;;;;;55.23;3.67;;;;;;;26.98;53.54;99120.88;7309954;19;128902;-33
2023/07/19 05:21:07;;;;;;;40.73;2.20;;;;;;;27.03;53.65;99129.06;7310574;19;129134;-30
2023/07/19 05:23:32;;;;;;;27.53;1.77;;;;;;;27.05;54.14;99127.06;7310574;19;129406;-38
2023/07/19 05:25:58;;;;;;;53.33;2.90;;;;;;;27.07;54.47;99130.34;7311647;19;130155;-36
2023/07/19 05:28:23;;;;;;;30.60;1.70;;;;;;;27.08;54.42;99121.41;7311056;19;128925;-33
2023/07/19 05:30:48;;;;;;;79.07;4.53;;;;;;;27.08;54.06;99127.50;7309688;19;129407;-34
2023/07/19 05:33:14;;;;;;;36.83;2.10;;;;;;;27.09;54.07;99133.63;7310140;19;128967;-32
2023/07/19 05:35:40;;;;;;;38.88;2.33;;;;;;;27.09;54.13;99136.25;7310045;19;130391;-40
2023/07/19 05:38:05;;;;;;;21.60;1.33;;;;;;;27.09;54.56;99128.34;7308851;19;128909;-35
2023/07/19 05:40:31;;;;;;;12.30;0.90;;;;;;;27.08;54.27;99121.41;7310284;19;128769;-35
2023/07/19 05:42:56;;;;;;;57.93;3.27;;;;;;;26.76;50.62;99120.00;7306935;19;130302;-38
2023/07/19 05:45:22;;;;;;;32.67;1.97;;;;;;;26.54;50.33;99119.09;7309711;19;129892;-43
2023/07/19 05:47:47;;;;;;;52.70;3.27;;;;;;;26.47;49.45;99120.84;7309878;19;129548;-34
2023/07/19 05:50:13;;;;;;;27.87;1.57;;;;;;;26.68;53.31;99123.59;7310082;19;129068;-35
2023/07/19 05:52:39;;;;;;;40.87;2.30;;;;;;;26.87;53.86;99114.28;7308145;19;130967;-39
2023/07/19 05:55:08;;;;;;;34.15;1.98;;;;;;;26.87;53.99;99104.53;7307306;19;129250;-39
2023/07/19 05:57:33;;;;;;;25.05;1.50;;;;;;;27.00;53.52;99108.31;7309567;19;129099;-35
2023/07/19 06:00:13;;;;;;;51.93;3.27;;;;;;;27.06;54.59;99110.22;7310207;19;129358;-36
2023/07/19 06:02:39;;;;;;;39.20;2.25;;;;;;;27.04;54.40;99107.75;7306492;19;129392;-37
2023/07/19 06:05:06;;;;;;;41.47;2.67;;;;;;;27.07;54.47;99103.94;7309777;19;129519;-36
2023/07/19 06:07:32;;;;;;;20.58;1.33;;;;;;;27.00;53.96;99092.50;7309398;19;128991;-30
2023/07/19 06:09:57;;;;;;;57.07;3.47;;;;;;;27.08;54.21;99102.94;7309104;19;128940;-40
2023/07/19 06:12:23;;;;;;;48.47;2.77;;;;;;;27.09;54.57;99107.22;7308228;19;129651;-31
2023/07/19 06:14:48;;;;;;;48.37;2.93;;;;;;;27.07;54.47;99103.94;7309844;19;129581;-36
2023/07/19 06:17:13;;;;;;;43.43;2.67;;;;;;;27.09;54.25;99099.31;7307069;19;130530;-36
2023/07/19 06:19:39;;;;;;;27.90;1.60;;;;;;;26.90;51.67;99098.91;7310013;19;129004;-30
2023/07/19 06:22:07;;;;;;;53.55;3.33;;;;;;;26.56;49.92;99101.28;7306554;19;131680;-35
2023/07/19 06:24:32;;;;;;;29.67;1.83;;;;;;;26.50;49.73;99102.03;7310595;19;129660;-33
2023/07/19 06:26:58;;;;;;;54.57;3.23;;;;;;;26.68;53.19;99101.66;7308598;19;129454;-38
2023/07/19 06:29:23;;;;;;;10.60;0.67;;;;;;;26.86;53.38;99094.97;7310695;19;129015;-35
2023/07/19 06:31:49;;;;;;;81.27;4.33;;;;;;;26.86;53.82;99086.25;7309820;19;131120;-35
2023/07/19 06:34:15;;;;;;;60.67;3.63;;;;;;;27.00;54.04;99092.50;7308968;19;130348;-31
2023/07/19 06:36:40;;;;;;;42.23;2.33;;;;;;;27.03;54.00;99092.13;7309350;19;129906;-38
2023/07/19 06:39:05;;;;;;;42.90;2.53;;;;;;;27.04;53.95;99089.28;7309135;19;129096;-35
2023/07/19 06:41:31;;;;;;;45.40;2.40;;;;;;;27.06;53.81;99091.72;7308501;19;129018;-37
2023/07/19 06:43:57;;;;;;;10.40;0.70;;;;;;;27.06;54.16;99087.28;7312512;19;129867;-33
2023/07/19 06:46:22;;;;;;;44.13;2.77;;;;;;;27.07;54.16;99088.09;7315691;19;129124;-39
2023/07/19 06:48:48;;;;;;;28.53;1.60;;;;;;;27.08;54.39;99081.81;7315611;19;129564;-32
2023/07/19 06:51:14;;;;;;;73.07;4.30;;;;;;;27.07;54.36;99082.84;7314523;19;130271;-37
2023/07/19 06:53:39;;;;;;;25.48;1.52;;;;;;;27.07;54.39;99081.03;7316954;19;130523;-36
2023/07/19 06:56:05;;;;;;;35.10;2.10;;;;;;;27.08;54.36;99084.44;7315868;19;129883;-39
2023/07/19 06:58:30;;;;;;;33.30;1.90;;;;;;;26.63;51.42;99064.44;7314861;19;130830;-38
2023/07/19 07:00:56;;;;;;;35.67;2.07;;;;;;;26.58;50.30;99085.28;7315689;19;129041;-37
2023/07/19 07:03:22;;;;;;;60.38;3.50;;;;;;;26.45;49.38;99079.84;7312312;19;130633;-33
2023/07/19 07:05:48;;;;;;;29.13;1.70;;;;;;;26.75;53.35;99078.81;7316497;19;129041;-34
2023/07/19 07:08:13;;;;;;;59.37;3.47;;;;;;;26.89;53.74;99076.13;7313987;19;129549;-39
2023/07/19 07:10:42;;;;;;;34.20;1.90;;;;;;;26.96;54.01;99081.50;7316976;19;129877;-33
2023/07/19 07:13:08;;;;;;;33.03;1.92;;;;;;;27.01;53.86;99075.69;7314253;19;130057;-35
2023/07/19 07:15:33;;;;;;;36.40;2.20;;;;;;;27.04;54.11;99073.44;7313388;19;129548;-32
2023/07/19 07:17:58;;;;;;;46.50;2.50;;;;;;;27.05;54.58;99071.63;7314359;19;130474;-32
2023/07/19 07:20:24;;;;;;;62.03;3.67;;;;;;;27.05;54.23;99069.81;7314468;19;129196;-39
2023/07/19 07:22:50;;;;;;;22.83;1.47;;;;;;;27.06;54.26;99075.91;7312754;19;131103;-33
2023/07/19 07:25:16;;;;;;;24.77;1.43;;;;;;;27.06;54.20;99073.25;7315354;19;129149;-33
2023/07/19 07:27:41;;;;;;;48.20;2.83;;;;;;;27.06;54.61;99076.72;7313456;19;129752;-39
2023/07/19 07:30:08;;;;;;;23.10;1.43;;;;;;;27.06;54.79;99075.91;7313463;19;129128;-37
2023/07/19 07:32:34;;;;;;;59.78;3.67;;;;;;;27.00;54.70;99074.03;7312060;19;131160;-38
2023/07/19 07:34:59;;;;;;;33.87;2.13;;;;;;;26.92;51.53;99081.03;7314632;19;129055;-38
2023/07/19 07:37:25;;;;;;;51.27;2.67;;;;;;;26.57;50.21;99079.19;7313926;19;129186;-39
2023/07/19 07:39:50;;;;;;;24.60;1.43;;;;;;;26.43;49.74;99080.00;7315802;19;130554;-31
2023/07/19 07:42:16;;;;;;;32.07;1.77;;;;;;;26.56;53.71;99063.56;7313063;19;129144;-41
2023/07/19 07:44:41;;;;;;;84.50;5.10;;;;;;;26.81;53.89;99068.34;7313822;19;130300;-34
2023/07/19 07:47:07;;;;;;;48.07;2.63;;;;;;;26.91;54.24;99074.13;7313941;19;129555;-35
2023/07/19 07:49:33;;;;;;;37.28;2.30;;;;;;;26.97;54.03;99067.31;7314181;19;130272;-41
2023/07/19 07:51:59;;;;;;;25.20;1.53;;;;;;;27.01;53.99;99063.28;7312634;19;131822;-36
2023/07/19 07:54:24;;;;;;;26.50;1.47;;;;;;;26.96;53.85;99051.69;7312964;19;131175;-34
2023/07/19 07:56:49;;;;;;;74.03;4.20;;;;;;;27.03;53.99;99060.44;7311761;19;129028;-38
2023/07/19 07:59:15;;;;;;;29.23;1.70;;;;;;;27.04;53.74;99059.47;7314224;19;130088;-31
2023/07/19 08:01:41;;;;;;;38.20;2.40;;;;;;;27.04;54.22;99060.25;7311386;19;130621;-41
2023/07/19 08:04:09;;;;;;;32.85;1.88;;;;;;;26.96;53.80;99044.56;7313608;19;129529;-33
2023/07/19 08:06:35;;;;;;;26.35;1.45;;;;;;;27.05;54.36;99066.38;7313821;19;128896;-36
2023/07/19 08:09:01;;;;;;;40.87;2.40;;;;;;;27.05;54.57;99058.44;7312060;19;130418;-38
2023/07/19 08:11:26;;;;;;;27.17;1.53;;;;;;;27.04;54.01;99054.97;7313083;19;131060;-36
2023/07/19 08:13:53;;;;;;;62.77;3.73;;;;;;;26.55;50.63;99046.91;7312416;19;128805;-33
2023/07/19 08:16:18;;;;;;;37.53;2.08;;;;;;;26.36;49.89;99030.88;7313246;19;129252;-36
2023/07/19 08:18:44;;;;;;;22.93;1.37;;;;;;;26.55;52.82;99041.66;7312256;19;129053;-30
2023/07/19 08:21:09;;;;;;;39.57;2.20;;;;;;;26.73;53.59;99034.16;7311834;19;129727;-36
2023/07/19 08:23:34;;;;;;;41.43;2.13;;;;;;;26.90;53.88;99035.59;7311219;19;128948;-36
2023/07/19 08:26:00;;;;;;;57.63;3.23;;;;;;;26.96;53.73;99039.28;7312986;19;128932;-45
2023/07/19 08:28:25;;;;;;;28.53;1.67;;;;;;;27.00;53.71;99045.00;7313094;19;129665;-37
2023/07/19 08:30:51;;;;;;;29.63;1.70;;;;;;;26.91;54.20;99024.00;7312623;19;129257;-37
2023/07/19 08:33:17;;;;;;;116.93;6.35;;;;;;;27.02;54.24;99027.16;7312907;19;130423;-32
2023/07/19 08:35:43;;;;;;;26.23;1.43;;;;;;;27.03;53.88;99028.78;7313386;19;130114;-35
2023/07/19 08:38:08;;;;;;;31.90;1.83;;;;;;;27.03;53.83;99028.78;7311688;19;129294;-37
2023/07/19 08:40:38;;;;;;;18.27;1.17;;;;;;;27.02;54.23;99016.59;7312475;19;131121;-39
2023/07/19 08:43:07;;;;;;;55.35;3.00;;;;;;;27.04;54.77;99017.25;7310578;19;129616;-39
2023/07/19 08:45:36;;;;;;;61.00;3.65;;;;;;;26.93;54.71;98998.28;7311432;19;130420;-35
2023/07/19 08:48:03;;;;;;;33.40;1.83;;;;;;;26.93;54.51;98998.28;7312633;19;129722;-39
2023/07/19 08:50:28;;;;;;;52.85;3.20;;;;;;;26.65;50.63;99015.84;7311993;19;129272;-35
2023/07/19 08:52:54;;;;;;;21.47;1.30;;;;;;;26.45;50.59;98998.94;7310199;19;129203;-35
2023/07/19 08:55:20;;;;;;;35.57;1.97;;;;;;;26.40;50.02;99005.75;7313640;19;129705;-34
2023/07/19 08:57:46;;;;;;;37.40;2.17;;;;;;;26.59;54.14;98992.78;7311385;19;130225;-34
2023/07/19 09:00:16;;;;;;;31.40;1.83;;;;;;;26.85;54.31;99011.59;7311925;19;130639;-34
2023/07/19 09:02:42;;;;;;;69.47;4.10;;;;;;;26.92;54.13;99009.81;7310095;19;129247;-40
2023/07/19 09:05:11;;;;;;;29.83;1.70;;;;;;;26.89;54.16;99001.47;7312736;19;128979;-38
2023/07/19 09:07:38;;;;;;;28.48;1.63;;;;;;;26.97;54.09;99008.44;7310168;19;130087;-34
2023/07/19 09:10:06;;;;;;;12.88;0.93;;;;;;;26.98;54.06;99010.06;7311113;19;129735;-31
2023/07/19 09:12:36;;;;;;;31.65;1.77;;;;;;;26.99;54.79;99009.06;7309536;19;132553;-36
2023/07/19 09:15:01;;;;;;;56.78;3.30;;;;;;;27.00;53.96;99005.41;7310863;19;129376;-34
2023/07/19 09:17:30;;;;;;;31.20;1.77;;;;;;;27.01;54.54;98999.16;7312040;19;130122;-33
2023/07/19 09:19:55;;;;;;;51.92;3.17;;;;;;;27.00;54.58;98997.50;7311374;19;131290;-33
2023/07/19 09:22:20;;;;;;;34.83;1.93;;;;;;;26.96;54.25;98991.00;7310801;19;129189;-39
2023/07/19 09:25:01;;;;;;;49.70;2.87;;;;;;;27.03;54.64;99002.41;7311785;19;130155;-31
2023/07/19 09:27:26;;;;;;;41.47;2.25;;;;;;;26.76;51.18;98998.69;7311523;19;130953;-35
2023/07/19 09:29:52;;;;;;;22.43;1.50;;;;;;;26.54;50.23;98992.53;7311277;19;130214;-35
2023/07/19 09:32:17;;;;;;;49.27;2.83;;;;;;;26.42;49.84;98996.69;7309507;19;131019;-32
2023/07/19 09:34:44;;;;;;;53.40;3.13;;;;;;;26.68;53.64;98998.81;7311077;19;129095;-38
2023/07/19 09:37:10;;;;;;;91.07;5.45;;;;;;;26.82;53.74;98990.84;7310592;19;129884;-35
2023/07/19 09:39:36;;;;;;;25.27;1.40;;;;;;;26.90;54.16;98989.91;7311695;19;131527;-35
2023/07/19 09:42:03;;;;;;;23.50;1.47;;;;;;;26.93;54.02;98992.16;7308955;19;128996;-39
2023/07/19 09:44:29;;;;;;;49.72;2.72;;;;;;;26.97;54.04;98992.59;7310370;19;129240;-31
2023/07/19 09:46:54;;;;;;;37.88;2.10;;;;;;;26.96;53.94;98985.72;7311108;19;129561;-37
2023/07/19 09:49:20;;;;;;;48.00;2.97;;;;;;;26.89;54.56;98975.09;7309462;19;129671;-39
2023/07/19 09:51:47;;;;;;;30.77;1.80;;;;;;;26.89;54.39;98981.16;7308812;19;130564;-39
2023/07/19 09:54:15;;;;;;;56.20;2.92;;;;;;;26.98;54.23;98983.69;7310234;19;128922;-35
2023/07/19 09:56:43;;;;;;;50.13;2.92;;;;;;;26.98;54.29;98994.22;7308631;19;129042;-34
2023/07/19 09:59:14;;;;;;;25.17;1.48;;;;;;;27.00;55.17;98981.66;7310005;19;129280;-32
2023/07/19 10:01:40;;;;;;;60.25;3.67;;;;;;;27.00;54.58;98992.22;7308958;19;129276;-41
2023/07/19 10:04:25;;;;;;;42.22;2.33;;;;;;;26.85;52.21;98987.84;7310500;19;129001;-37
2023/07/19 10:07:32;;;;;;;89.75;5.00;;;;;;;26.56;50.85;98992.38;7308690;19;132066;-35
2023/07/19 10:10:02;;;;;;;22.95;1.30;;;;;;;26.41;50.27;98984.47;7309147;19;130309;-36
2023/07/19 10:12:28;;;;;;;40.75;2.28;;;;;;;26.67;53.97;98981.34;7308453;19;130837;-33
2023/07/19 10:15:00;;;;;;;61.63;3.58;;;;;;;26.84;54.15;98988.03;7310134;19;129286;-34
2023/07/19 10:17:26;;;;;;;32.28;1.80;;;;;;;26.87;54.07;98971.81;7310081;19;130729;-40
2023/07/19 10:20:15;;;;;;;57.47;3.50;;;;;;;26.96;54.34;98973.31;7314750;19;129638;-35
2023/07/19 10:22:47;;;;;;;24.77;1.50;;;;;;;26.96;54.24;98975.16;7315460;19;131118;-36
2023/07/19 10:25:25;;;;;;;30.60;1.88;;;;;;;26.97;54.28;98960.94;7316430;19;128926;-37
2023/07/19 10:27:58;;;;;;;57.58;3.33;;;;;;;26.97;54.83;98955.66;7315690;19;129764;-40
2023/07/19 10:30:42;;;;;;;37.65;2.17;;;;;;;27.00;54.93;98955.28;7316909;19;129944;-32
2023/07/19 10:33:08;;;;;;;72.00;4.20;;;;;;;26.96;54.50;98946.13;7316744;19;128836;-34
2023/07/19 10:35:34;;;;;;;36.67;2.13;;;;;;;26.97;54.58;98945.13;7316908;19;130007;-33
2023/07/19 10:37:59;;;;;;;34.30;2.20;;;;;;;26.98;54.52;98939.66;7315260;19;129503;-30
2023/07/19 10:40:24;;;;;;;37.33;2.10;;;;;;;26.98;54.42;98938.81;7316511;19;129113;-36
2023/07/19 10:42:50;;;;;;;20.70;1.20;;;;;;;26.63;50.87;98932.59;7314906;19;129037;-30
2023/07/19 10:45:15;;;;;;;29.20;1.60;;;;;;;26.47;50.27;98933.66;7316073;19;130171;-35
2023/07/19 10:47:41;;;;;;;27.10;1.57;;;;;;;26.38;50.27;98931.31;7315614;19;128979;-38
2023/07/19 10:50:08;;;;;;;89.13;5.10;;;;;;;26.62;53.84;98937.06;7314753;19;130622;-34
2023/07/19 10:52:33;;;;;;;9.75;0.80;;;;;;;26.77;53.45;98924.66;7315465;19;130155;-37
2023/07/19 10:54:59;;;;;;;48.17;2.57;;;;;;;26.83;53.97;98923.91;7316243;19;129533;-40
2023/07/19 10:57:27;;;;;;;20.57;1.30;;;;;;;26.83;54.18;98915.16;7315268;19;131533;-36
2023/07/19 10:59:52;;;;;;;51.15;2.72;;;;;;;26.90;54.62;98935.34;7316033;19;131427;-36
2023/07/19 11:02:18;;;;;;;60.27;3.50;;;;;;;26.93;54.16;98932.31;7314448;19;130615;-37
2023/07/19 11:04:45;;;;;;;34.97;2.17;;;;;;;26.94;54.50;98925.19;7316219;19;129232;-34
2023/07/19 11:07:11;;;;;;;76.05;4.65;;;;;;;26.94;54.59;98915.47;7313543;19;129733;-38
2023/07/19 11:09:41;;;;;;;41.40;2.27;;;;;;;26.95;54.97;98908.38;7315767;19;129601;-39
2023/07/19 11:12:09;;;;;;;29.02;1.70;;;;;;;26.96;54.59;98909.19;7314852;19;131264;-31